sensor_id;sensor_type;location;lat;lon;timestamp;pressure;altitude;pressure_sealevel;temperature;humidity
36386;BME280;24125;47.482;8.770;2023-05-07T00:00:36;96110.91;;;16.65;75.05
36386;BME280;24125;47.482;8.770;2023-05-07T00:03:09;96112.44;;;16.66;75.28
36386;BME280;24125;47.482;8.770;2023-05-07T00:05:42;96110.91;;;16.65;75.36
36386;BME280;24125;47.482;8.770;2023-05-07T00:08:15;96114.72;;;16.64;75.10
36386;BME280;24125;47.482;8.770;2023-05-07T00:10:48;96107.00;;;16.62;75.17
36386;BME280;24125;47.482;8.770;2023-05-07T00:13:22;96111.63;;;16.62;74.92
36386;BME280;24125;47.482;8.770;2023-05-07T00:15:55;96108.13;;;16.61;75.15
36386;BME280;24125;47.482;8.770;2023-05-07T00:18:28;96107.72;;;16.59;75.40
36386;BME280;24125;47.482;8.770;2023-05-07T00:21:01;96105.81;;;16.59;75.34
36386;BME280;24125;47.482;8.770;2023-05-07T00:23:34;96102.69;;;16.57;75.25
36386;BME280;24125;47.482;8.770;2023-05-07T00:26:07;96103.03;;;16.56;75.14
36386;BME280;24125;47.482;8.770;2023-05-07T00:28:42;96103.03;;;16.56;75.28
36386;BME280;24125;47.482;8.770;2023-05-07T00:31:15;96106.88;;;16.55;75.15
36386;BME280;24125;47.482;8.770;2023-05-07T00:33:48;96094.13;;;16.52;75.09
36386;BME280;24125;47.482;8.770;2023-05-07T00:36:20;96099.50;;;16.52;75.38
36386;BME280;24125;47.482;8.770;2023-05-07T00:38:53;96099.91;;;16.50;75.09
36386;BME280;24125;47.482;8.770;2023-05-07T00:41:26;96094.47;;;16.47;75.26
36386;BME280;24125;47.482;8.770;2023-05-07T00:44:00;96098.28;;;16.46;74.76
36386;BME280;24125;47.482;8.770;2023-05-07T00:46:33;96110.56;;;16.43;75.17
36386;BME280;24125;47.482;8.770;2023-05-07T00:49:06;96096.69;;;16.41;75.15
36386;BME280;24125;47.482;8.770;2023-05-07T00:51:39;96106.28;;;16.39;74.92
36386;BME280;24125;47.482;8.770;2023-05-07T00:54:12;96102.03;;;16.38;75.18
36386;BME280;24125;47.482;8.770;2023-05-07T00:56:45;96097.34;;;16.35;75.39
36386;BME280;24125;47.482;8.770;2023-05-07T00:59:20;96103.13;;;16.33;75.21
36386;BME280;24125;47.482;8.770;2023-05-07T01:01:53;96100.78;;;16.32;75.44
36386;BME280;24125;47.482;8.770;2023-05-07T01:04:25;96101.94;;;16.31;75.18
36386;BME280;24125;47.482;8.770;2023-05-07T01:06:59;96095.00;;;16.30;75.38
36386;BME280;24125;47.482;8.770;2023-05-07T01:09:33;96094.22;;;16.29;75.25
36386;BME280;24125;47.482;8.770;2023-05-07T01:12:07;96089.97;;;16.28;75.29
36386;BME280;24125;47.482;8.770;2023-05-07T01:14:42;96091.47;;;16.26;75.30
36386;BME280;24125;47.482;8.770;2023-05-07T01:17:15;96089.94;;;16.25;75.21
36386;BME280;24125;47.482;8.770;2023-05-07T01:19:48;96092.97;;;16.23;74.90
36386;BME280;24125;47.482;8.770;2023-05-07T01:22:30;96093.34;;;16.21;74.76
36386;BME280;24125;47.482;8.770;2023-05-07T01:25:03;96101.34;;;16.18;74.67
36386;BME280;24125;47.482;8.770;2023-05-07T01:27:36;96099.75;;;16.13;74.64
36386;BME280;24125;47.482;8.770;2023-05-07T01:30:09;96098.56;;;16.11;74.87
36386;BME280;24125;47.482;8.770;2023-05-07T01:32:43;96111.59;;;16.09;74.54
36386;BME280;24125;47.482;8.770;2023-05-07T01:35:18;96114.25;;;16.05;74.96
36386;BME280;24125;47.482;8.770;2023-05-07T01:37:53;96094.56;;;16.01;74.89
36386;BME280;24125;47.482;8.770;2023-05-07T01:40:26;96092.19;;;15.96;74.67
36386;BME280;24125;47.482;8.770;2023-05-07T01:42:59;96078.66;;;15.93;74.84
36386;BME280;24125;47.482;8.770;2023-05-07T01:45:33;96089.03;;;15.91;74.85
36386;BME280;24125;47.482;8.770;2023-05-07T01:48:06;96092.44;;;15.88;74.90
36386;BME280;24125;47.482;8.770;2023-05-07T01:50:39;96088.53;;;15.85;74.67
36386;BME280;24125;47.482;8.770;2023-05-07T01:53:14;96087.72;;;15.81;74.78
36386;BME280;24125;47.482;8.770;2023-05-07T01:55:47;96096.16;;;15.79;75.12
36386;BME280;24125;47.482;8.770;2023-05-07T01:58:19;96097.66;;;15.77;75.08
36386;BME280;24125;47.482;8.770;2023-05-07T02:00:52;96098.00;;;15.75;75.10
36386;BME280;24125;47.482;8.770;2023-05-07T02:03:25;96088.31;;;15.71;74.75
36386;BME280;24125;47.482;8.770;2023-05-07T02:05:58;96094.06;;;15.69;75.22
36386;BME280;24125;47.482;8.770;2023-05-07T02:08:33;96094.41;;;15.68;74.84
36386;BME280;24125;47.482;8.770;2023-05-07T02:11:05;96089.78;;;15.65;74.82
36386;BME280;24125;47.482;8.770;2023-05-07T02:13:38;96094.72;;;15.63;74.98
36386;BME280;24125;47.482;8.770;2023-05-07T02:16:11;96094.66;;;15.59;74.94
36386;BME280;24125;47.482;8.770;2023-05-07T02:18:45;96096.19;;;15.57;74.84
36386;BME280;24125;47.482;8.770;2023-05-07T02:21:18;96101.44;;;15.53;75.13
36386;BME280;24125;47.482;8.770;2023-05-07T02:23:52;96106.06;;;15.53;74.86
36386;BME280;24125;47.482;8.770;2023-05-07T02:26:25;96097.91;;;15.49;74.62
36386;BME280;24125;47.482;8.770;2023-05-07T02:28:58;96095.53;;;15.44;74.64
36386;BME280;24125;47.482;8.770;2023-05-07T02:31:31;96086.59;;;15.40;74.66
36386;BME280;24125;47.482;8.770;2023-05-07T02:34:05;96096.19;;;15.37;74.34
36386;BME280;24125;47.482;8.770;2023-05-07T02:36:38;96098.03;;;15.33;74.33
36386;BME280;24125;47.482;8.770;2023-05-07T02:39:13;96104.47;;;15.29;74.21
36386;BME280;24125;47.482;8.770;2023-05-07T02:41:46;96103.63;;;15.25;74.33
36386;BME280;24125;47.482;8.770;2023-05-07T02:44:19;96106.63;;;15.20;74.41
36386;BME280;24125;47.482;8.770;2023-05-07T02:46:52;96106.88;;;15.15;74.51
36386;BME280;24125;47.482;8.770;2023-05-07T02:49:25;96108.75;;;15.10;74.32
36386;BME280;24125;47.482;8.770;2023-05-07T02:51:58;96118.25;;;15.04;74.27
36386;BME280;24125;47.482;8.770;2023-05-07T02:54:32;96117.38;;;15.00;74.28
36386;BME280;24125;47.482;8.770;2023-05-07T02:57:05;96121.56;;;14.98;74.07
36386;BME280;24125;47.482;8.770;2023-05-07T02:59:38;96122.97;;;14.92;74.06
36386;BME280;24125;47.482;8.770;2023-05-07T03:02:11;96115.56;;;14.85;74.14
36386;BME280;24125;47.482;8.770;2023-05-07T03:04:43;96120.84;;;14.82;74.08
36386;BME280;24125;47.482;8.770;2023-05-07T03:07:16;96121.13;;;14.77;74.03
36386;BME280;24125;47.482;8.770;2023-05-07T03:09:51;96116.03;;;14.71;74.13
36386;BME280;24125;47.482;8.770;2023-05-07T03:12:24;96112.50;;;14.67;74.07
36386;BME280;24125;47.482;8.770;2023-05-07T03:14:57;96110.06;;;14.62;74.00
36386;BME280;24125;47.482;8.770;2023-05-07T03:17:30;96105.44;;;14.59;73.85
36386;BME280;24125;47.482;8.770;2023-05-07T03:20:03;96106.06;;;14.53;74.00
36386;BME280;24125;47.482;8.770;2023-05-07T03:22:36;96103.28;;;14.49;73.98
36386;BME280;24125;47.482;8.770;2023-05-07T03:25:11;96109.69;;;14.45;74.00
36386;BME280;24125;47.482;8.770;2023-05-07T03:27:43;96110.75;;;14.40;74.01
36386;BME280;24125;47.482;8.770;2023-05-07T03:30:17;96101.81;;;14.36;73.96
36386;BME280;24125;47.482;8.770;2023-05-07T03:32:51;96107.13;;;14.32;73.98
36386;BME280;24125;47.482;8.770;2023-05-07T03:35:24;96102.78;;;14.28;73.97
36386;BME280;24125;47.482;8.770;2023-05-07T03:37:57;96107.75;;;14.26;74.01
36386;BME280;24125;47.482;8.770;2023-05-07T03:40:31;96098.38;;;14.20;74.13
36386;BME280;24125;47.482;8.770;2023-05-07T03:43:04;96109.84;;;14.17;74.39
36386;BME280;24125;47.482;8.770;2023-05-07T03:45:37;96101.69;;;14.13;74.26
36386;BME280;24125;47.482;8.770;2023-05-07T03:48:10;96106.97;;;14.10;74.42
36386;BME280;24125;47.482;8.770;2023-05-07T03:50:43;96119.22;;;14.07;74.41
36386;BME280;24125;47.482;8.770;2023-05-07T03:53:16;96114.53;;;14.04;74.78
36386;BME280;24125;47.482;8.770;2023-05-07T03:55:51;96116.78;;;14.02;74.46
36386;BME280;24125;47.482;8.770;2023-05-07T03:58:24;96124.41;;;14.00;74.81
36386;BME280;24125;47.482;8.770;2023-05-07T04:00:57;96126.66;;;13.98;74.90
36386;BME280;24125;47.482;8.770;2023-05-07T04:03:30;96131.25;;;13.97;75.05
36386;BME280;24125;47.482;8.770;2023-05-07T04:06:04;96125.09;;;13.97;75.04
36386;BME280;24125;47.482;8.770;2023-05-07T04:08:37;96126.56;;;13.94;75.10
36386;BME280;24125;47.482;8.770;2023-05-07T04:11:11;96127.34;;;13.95;75.09
36386;BME280;24125;47.482;8.770;2023-05-07T04:13:44;96127.34;;;13.95;75.35
36386;BME280;24125;47.482;8.770;2023-05-07T04:16:17;96128.13;;;13.95;75.30
36386;BME280;24125;47.482;8.770;2023-05-07T04:18:50;96134.28;;;13.96;75.68
36386;BME280;24125;47.482;8.770;2023-05-07T04:21:22;96132.81;;;13.98;75.80
36386;BME280;24125;47.482;8.770;2023-05-07T04:23:55;96136.69;;;14.01;75.95
36386;BME280;24125;47.482;8.770;2023-05-07T04:26:30;96140.94;;;14.02;76.23
36386;BME280;24125;47.482;8.770;2023-05-07T04:29:02;96141.03;;;14.06;76.43
36386;BME280;24125;47.482;8.770;2023-05-07T04:31:35;96137.66;;;14.09;76.51
36386;BME280;24125;47.482;8.770;2023-05-07T04:34:08;96148.22;;;14.17;76.60
36386;BME280;24125;47.482;8.770;2023-05-07T04:36:42;96139.44;;;14.20;76.79
36386;BME280;24125;47.482;8.770;2023-05-07T04:39:14;96134.22;;;14.27;76.98
36386;BME280;24125;47.482;8.770;2023-05-07T04:41:49;96141.69;;;14.34;77.12
36386;BME280;24125;47.482;8.770;2023-05-07T04:44:22;96145.34;;;14.42;77.27
36386;BME280;24125;47.482;8.770;2023-05-07T04:46:55;96141.69;;;14.50;77.48
36386;BME280;24125;47.482;8.770;2023-05-07T04:49:27;96141.03;;;14.56;77.66
36386;BME280;24125;47.482;8.770;2023-05-07T04:52:00;96152.38;;;14.65;77.81
36386;BME280;24125;47.482;8.770;2023-05-07T04:54:34;96147.56;;;14.75;77.90
36386;BME280;24125;47.482;8.770;2023-05-07T04:57:09;96144.69;;;14.83;78.04
36386;BME280;24125;47.482;8.770;2023-05-07T04:59:41;96156.44;;;14.94;78.09
36386;BME280;24125;47.482;8.770;2023-05-07T05:02:15;96156.22;;;15.03;78.46
36386;BME280;24125;47.482;8.770;2023-05-07T05:04:51;96158.34;;;15.13;78.65
36386;BME280;24125;47.482;8.770;2023-05-07T05:07:24;96161.66;;;15.26;78.79
36386;BME280;24125;47.482;8.770;2023-05-07T05:09:56;96170.72;;;15.37;79.19
36386;BME280;24125;47.482;8.770;2023-05-07T05:12:31;96170.56;;;15.49;79.18
36386;BME280;24125;47.482;8.770;2023-05-07T05:15:04;96171.22;;;15.62;79.66
36386;BME280;24125;47.482;8.770;2023-05-07T05:17:37;96174.16;;;15.76;79.79
36386;BME280;24125;47.482;8.770;2023-05-07T05:20:10;96178.66;;;15.91;79.55
36386;BME280;24125;47.482;8.770;2023-05-07T05:22:43;96175.75;;;16.03;79.82
36386;BME280;24125;47.482;8.770;2023-05-07T05:25:16;96182.56;;;16.20;80.17
36386;BME280;24125;47.482;8.770;2023-05-07T05:27:50;96184.72;;;16.34;79.81
36386;BME280;24125;47.482;8.770;2023-05-07T05:30:23;96187.69;;;16.51;80.37
36386;BME280;24125;47.482;8.770;2023-05-07T05:32:56;96177.16;;;16.69;80.82
36386;BME280;24125;47.482;8.770;2023-05-07T05:35:29;96175.13;;;16.89;80.80
36386;BME280;24125;47.482;8.770;2023-05-07T05:38:02;96171.94;;;17.10;81.27
36386;BME280;24125;47.482;8.770;2023-05-07T05:40:35;96173.31;;;17.30;80.91
36386;BME280;24125;47.482;8.770;2023-05-07T05:43:09;96179.75;;;17.52;81.05
36386;BME280;24125;47.482;8.770;2023-05-07T05:45:42;96180.38;;;17.71;81.08
36386;BME280;24125;47.482;8.770;2023-05-07T05:48:15;96171.69;;;17.92;81.26
36386;BME280;24125;47.482;8.770;2023-05-07T05:50:48;96169.56;;;18.12;80.93
36386;BME280;24125;47.482;8.770;2023-05-07T05:53:20;96172.75;;;18.28;80.55
36386;BME280;24125;47.482;8.770;2023-05-07T05:55:53;96169.78;;;18.44;80.12
36386;BME280;24125;47.482;8.770;2023-05-07T05:58:27;96177.25;;;18.58;79.78
36386;BME280;24125;47.482;8.770;2023-05-07T06:01:00;96174.59;;;18.68;79.19
36386;BME280;24125;47.482;8.770;2023-05-07T06:03:34;96176.59;;;18.78;78.58
36386;BME280;24125;47.482;8.770;2023-05-07T06:06:06;96176.25;;;18.83;78.21
36386;BME280;24125;47.482;8.770;2023-05-07T06:08:39;96184.78;;;18.89;77.89
36386;BME280;24125;47.482;8.770;2023-05-07T06:11:12;96182.88;;;18.93;77.44
36386;BME280;24125;47.482;8.770;2023-05-07T06:13:47;96186.38;;;18.97;77.42
36386;BME280;24125;47.482;8.770;2023-05-07T06:16:22;96196.06;;;19.02;77.14
36386;BME280;24125;47.482;8.770;2023-05-07T06:18:54;96196.06;;;19.05;77.13
36386;BME280;24125;47.482;8.770;2023-05-07T06:21:27;96208.84;;;19.12;77.48
36386;BME280;24125;47.482;8.770;2023-05-07T06:24:00;96213.16;;;19.16;77.70
36386;BME280;24125;47.482;8.770;2023-05-07T06:26:33;96208.53;;;19.24;77.88
36386;BME280;24125;47.482;8.770;2023-05-07T06:29:07;96201.25;;;19.35;78.70
36386;BME280;24125;47.482;8.770;2023-05-07T06:31:39;96198.97;;;19.48;79.40
36386;BME280;24125;47.482;8.770;2023-05-07T06:34:12;96212.19;;;19.64;79.82
36386;BME280;24125;47.482;8.770;2023-05-07T06:36:46;96228.47;;;19.81;79.76
36386;BME280;24125;47.482;8.770;2023-05-07T06:39:19;96234.34;;;20.01;79.80
36386;BME280;24125;47.482;8.770;2023-05-07T06:41:51;96226.25;;;20.19;80.30
36386;BME280;24125;47.482;8.770;2023-05-07T06:44:26;96237.53;;;20.39;80.19
36386;BME280;24125;47.482;8.770;2023-05-07T06:46:59;96241.00;;;20.60;80.59
36386;BME280;24125;47.482;8.770;2023-05-07T06:49:32;96232.47;;;20.80;80.74
36386;BME280;24125;47.482;8.770;2023-05-07T06:52:05;96234.00;;;20.98;80.96
36386;BME280;24125;47.482;8.770;2023-05-07T06:54:38;96233.94;;;21.16;80.30
36386;BME280;24125;47.482;8.770;2023-05-07T06:57:10;96233.16;;;21.33;79.98
36386;BME280;24125;47.482;8.770;2023-05-07T06:59:45;96234.25;;;21.46;79.21
36386;BME280;24125;47.482;8.770;2023-05-07T07:02:18;96238.88;;;21.57;78.88
36386;BME280;24125;47.482;8.770;2023-05-07T07:04:51;96238.84;;;21.67;77.55
36386;BME280;24125;47.482;8.770;2023-05-07T07:07:24;96232.59;;;21.74;77.79
36386;BME280;24125;47.482;8.770;2023-05-07T07:09:56;96232.94;;;21.79;77.50
36386;BME280;24125;47.482;8.770;2023-05-07T07:12:29;96227.88;;;21.85;77.37
36386;BME280;24125;47.482;8.770;2023-05-07T07:15:04;96239.09;;;21.91;77.18
36386;BME280;24125;47.482;8.770;2023-05-07T07:17:37;96237.13;;;21.98;77.27
36386;BME280;24125;47.482;8.770;2023-05-07T07:20:10;96238.28;;;22.04;77.57
36386;BME280;24125;47.482;8.770;2023-05-07T07:22:44;96235.50;;;22.11;77.73
36386;BME280;24125;47.482;8.770;2023-05-07T07:25:17;96231.19;;;22.21;77.88
36386;BME280;24125;47.482;8.770;2023-05-07T07:27:50;96234.63;;;22.29;77.55
36386;BME280;24125;47.482;8.770;2023-05-07T07:30:24;96227.19;;;22.36;76.53
36386;BME280;24125;47.482;8.770;2023-05-07T07:32:57;96226.72;;;22.45;77.57
36386;BME280;24125;47.482;8.770;2023-05-07T07:35:33;96227.41;;;22.56;77.82
36386;BME280;24125;47.482;8.770;2023-05-07T07:38:06;96227.72;;;22.65;77.69
36386;BME280;24125;47.482;8.770;2023-05-07T07:40:39;96225.69;;;22.76;77.54
36386;BME280;24125;47.482;8.770;2023-05-07T07:43:12;96231.81;;;22.87;77.79
36386;BME280;24125;47.482;8.770;2023-05-07T07:45:46;96225.88;;;23.00;77.31
36386;BME280;24125;47.482;8.770;2023-05-07T07:48:19;96221.09;;;23.11;77.96
36386;BME280;24125;47.482;8.770;2023-05-07T07:50:51;96227.97;;;23.22;78.49
36386;BME280;24125;47.482;8.770;2023-05-07T07:53:24;96237.59;;;23.34;79.27
36386;BME280;24125;47.482;8.770;2023-05-07T07:55:57;96231.97;;;23.45;79.18
36386;BME280;24125;47.482;8.770;2023-05-07T07:58:30;96233.44;;;23.56;79.11
36386;BME280;24125;47.482;8.770;2023-05-07T08:01:04;96227.47;;;23.68;79.43
36386;BME280;24125;47.482;8.770;2023-05-07T08:03:37;96229.25;;;23.79;78.30
36386;BME280;24125;47.482;8.770;2023-05-07T08:06:10;96235.41;;;23.86;78.00
36386;BME280;24125;47.482;8.770;2023-05-07T08:08:45;96240.69;;;23.97;77.94
36386;BME280;24125;47.482;8.770;2023-05-07T08:11:18;96238.22;;;24.06;78.38
36386;BME280;24125;47.482;8.770;2023-05-07T08:13:51;96235.75;;;24.15;77.55
36386;BME280;24125;47.482;8.770;2023-05-07T08:16:25;96232.16;;;24.25;78.92
36386;BME280;24125;47.482;8.770;2023-05-07T08:18:58;96241.34;;;24.35;78.44
36386;BME280;24125;47.482;8.770;2023-05-07T08:21:31;96237.28;;;24.47;78.71
36386;BME280;24125;47.482;8.770;2023-05-07T08:24:05;96246.84;;;24.58;78.30
36386;BME280;24125;47.482;8.770;2023-05-07T08:26:38;96243.16;;;24.68;79.18
36386;BME280;24125;47.482;8.770;2023-05-07T08:29:11;96239.06;;;24.80;78.60
36386;BME280;24125;47.482;8.770;2023-05-07T08:31:46;96236.53;;;24.93;79.49
36386;BME280;24125;47.482;8.770;2023-05-07T08:34:18;96237.13;;;25.04;79.94
36386;BME280;24125;47.482;8.770;2023-05-07T08:36:51;96234.56;;;25.16;79.33
36386;BME280;24125;47.482;8.770;2023-05-07T08:39:24;96232.78;;;25.26;79.08
36386;BME280;24125;47.482;8.770;2023-05-07T08:41:57;96240.78;;;25.37;78.39
36386;BME280;24125;47.482;8.770;2023-05-07T08:44:34;96243.75;;;25.46;78.27
36386;BME280;24125;47.482;8.770;2023-05-07T08:47:08;96238.50;;;25.55;77.81
36386;BME280;24125;47.482;8.770;2023-05-07T08:49:41;96239.09;;;25.66;78.24
36386;BME280;24125;47.482;8.770;2023-05-07T08:52:14;96247.50;;;25.75;78.59
36386;BME280;24125;47.482;8.770;2023-05-07T08:54:47;96248.38;;;25.88;79.07
36386;BME280;24125;47.482;8.770;2023-05-07T08:57:20;96249.75;;;25.97;78.09
36386;BME280;24125;47.482;8.770;2023-05-07T08:59:54;96250.72;;;26.06;77.66
36386;BME280;24125;47.482;8.770;2023-05-07T09:02:28;96243.47;;;26.16;77.41
36386;BME280;24125;47.482;8.770;2023-05-07T09:05:01;96249.53;;;26.27;78.46
36386;BME280;24125;47.482;8.770;2023-05-07T09:07:34;96246.19;;;26.36;77.04
36386;BME280;24125;47.482;8.770;2023-05-07T09:10:07;96247.16;;;26.45;77.64
36386;BME280;24125;47.482;8.770;2023-05-07T09:12:41;96247.66;;;26.56;78.15
36386;BME280;24125;47.482;8.770;2023-05-07T09:15:16;96242.34;;;26.65;79.15
36386;BME280;24125;47.482;8.770;2023-05-07T09:17:50;96247.56;;;26.76;78.52
36386;BME280;24125;47.482;8.770;2023-05-07T09:20:23;96245.00;;;26.85;77.24
36386;BME280;24125;47.482;8.770;2023-05-07T09:22:56;96241.66;;;26.94;77.42
36386;BME280;24125;47.482;8.770;2023-05-07T09:25:29;96241.06;;;27.02;77.58
36386;BME280;24125;47.482;8.770;2023-05-07T09:28:03;96240.44;;;27.11;76.28
36386;BME280;24125;47.482;8.770;2023-05-07T09:30:36;96238.28;;;27.19;77.71
36386;BME280;24125;47.482;8.770;2023-05-07T09:33:11;96240.81;;;27.26;76.69
36386;BME280;24125;47.482;8.770;2023-05-07T09:35:43;96231.66;;;27.32;75.89
36386;BME280;24125;47.482;8.770;2023-05-07T09:38:16;96239.69;;;27.39;76.27
36386;BME280;24125;47.482;8.770;2023-05-07T09:40:57;96234.78;;;27.47;76.07
36386;BME280;24125;47.482;8.770;2023-05-07T09:43:34;96223.19;;;27.56;76.48
36386;BME280;24125;47.482;8.770;2023-05-07T09:46:12;96218.72;;;27.62;77.17
36386;BME280;24125;47.482;8.770;2023-05-07T09:48:47;96215.00;;;27.68;75.36
36386;BME280;24125;47.482;8.770;2023-05-07T09:51:21;96216.78;;;27.75;74.32
36386;BME280;24125;47.482;8.770;2023-05-07T09:53:56;96219.75;;;27.81;74.83
36386;BME280;24125;47.482;8.770;2023-05-07T09:56:29;96210.53;;;27.87;76.37
36386;BME280;24125;47.482;8.770;2023-05-07T09:59:02;96213.94;;;27.91;72.93
36386;BME280;24125;47.482;8.770;2023-05-07T10:01:35;96210.63;;;27.96;74.49
36386;BME280;24125;47.482;8.770;2023-05-07T10:04:10;96206.59;;;28.01;73.49
36386;BME280;24125;47.482;8.770;2023-05-07T10:06:43;96200.97;;;28.04;73.86
36386;BME280;24125;47.482;8.770;2023-05-07T10:09:16;96199.25;;;28.10;73.92
36386;BME280;24125;47.482;8.770;2023-05-07T10:11:49;96204.19;;;28.15;74.60
36386;BME280;24125;47.482;8.770;2023-05-07T10:14:22;96202.44;;;28.22;75.63
36386;BME280;24125;47.482;8.770;2023-05-07T10:16:55;96201.44;;;28.28;75.74
36386;BME280;24125;47.482;8.770;2023-05-07T10:19:30;96187.50;;;28.35;76.58
36386;BME280;24125;47.482;8.770;2023-05-07T10:22:05;96187.63;;;28.44;76.04
36386;BME280;24125;47.482;8.770;2023-05-07T10:24:38;96187.38;;;28.51;74.93
36386;BME280;24125;47.482;8.770;2023-05-07T10:27:12;96185.16;;;28.59;76.66
36386;BME280;24125;47.482;8.770;2023-05-07T10:29:49;96181.84;;;28.64;77.20
36386;BME280;24125;47.482;8.770;2023-05-07T10:32:29;96178.88;;;28.71;76.08
36386;BME280;24125;47.482;8.770;2023-05-07T10:35:04;96179.09;;;28.77;76.29
36386;BME280;24125;47.482;8.770;2023-05-07T10:37:39;96178.84;;;28.84;75.71
36386;BME280;24125;47.482;8.770;2023-05-07T10:40:12;96176.78;;;28.88;75.17
36386;BME280;24125;47.482;8.770;2023-05-07T10:42:55;96174.97;;;28.94;75.41
36386;BME280;24125;47.482;8.770;2023-05-07T10:45:28;96169.69;;;29.00;73.80
36386;BME280;24125;47.482;8.770;2023-05-07T10:48:08;96160.41;;;29.06;74.90
36386;BME280;24125;47.482;8.770;2023-05-07T10:56:42;96163.75;;;29.23;75.22
36386;BME280;24125;47.482;8.770;2023-05-07T10:59:34;96155.38;;;29.26;76.07
36386;BME280;24125;47.482;8.770;2023-05-07T11:02:13;96156.03;;;29.31;75.88
36386;BME280;24125;47.482;8.770;2023-05-07T11:04:49;96151.91;;;29.35;75.54
36386;BME280;24125;47.482;8.770;2023-05-07T11:07:44;96146.63;;;29.41;73.43
36386;BME280;24125;47.482;8.770;2023-05-07T11:13:14;96143.03;;;29.53;76.01
36386;BME280;24125;47.482;8.770;2023-05-07T11:15:47;96142.44;;;29.58;75.49
36386;BME280;24125;47.482;8.770;2023-05-07T11:18:21;96136.69;;;29.65;75.16
36386;BME280;24125;47.482;8.770;2023-05-07T11:20:54;96140.69;;;29.73;76.85
36386;BME280;24125;47.482;8.770;2023-05-07T11:26:20;96135.72;;;29.90;75.31
36386;BME280;24125;47.482;8.770;2023-05-07T11:28:53;96143.72;;;29.97;68.07
36386;BME280;24125;47.482;8.770;2023-05-07T11:31:27;96138.25;;;30.06;72.04
36386;BME280;24125;47.482;8.770;2023-05-07T11:34:01;96143.03;;;30.15;74.70
36386;BME280;24125;47.482;8.770;2023-05-07T11:36:34;96145.50;;;30.22;73.06
36386;BME280;24125;47.482;8.770;2023-05-07T11:39:12;96139.84;;;30.25;72.49
36386;BME280;24125;47.482;8.770;2023-05-07T11:41:56;96141.22;;;30.30;71.57
36386;BME280;24125;47.482;8.770;2023-05-07T11:44:41;96136.03;;;30.32;72.77
36386;BME280;24125;47.482;8.770;2023-05-07T11:47:17;96142.63;;;30.34;73.82
36386;BME280;24125;47.482;8.770;2023-05-07T11:49:51;96144.91;;;30.36;71.49
36386;BME280;24125;47.482;8.770;2023-05-07T11:52:24;96142.78;;;30.40;70.55
36386;BME280;24125;47.482;8.770;2023-05-07T11:54:57;96139.91;;;30.44;69.45
36386;BME280;24125;47.482;8.770;2023-05-07T11:57:32;96138.97;;;30.47;67.40
36386;BME280;24125;47.482;8.770;2023-05-07T12:00:06;96139.28;;;30.49;62.68
36386;BME280;24125;47.482;8.770;2023-05-07T12:02:40;96138.81;;;30.50;66.73
36386;BME280;24125;47.482;8.770;2023-05-07T12:05:13;96134.88;;;30.51;66.05
36386;BME280;24125;47.482;8.770;2023-05-07T12:07:46;96137.63;;;30.51;68.21
36386;BME280;24125;47.482;8.770;2023-05-07T12:10:19;96138.06;;;30.50;64.95
36386;BME280;24125;47.482;8.770;2023-05-07T12:12:54;96131.03;;;30.49;67.74
36386;BME280;24125;47.482;8.770;2023-05-07T12:15:26;96138.19;;;30.46;54.65
36386;BME280;24125;47.482;8.770;2023-05-07T12:18:00;96136.66;;;30.45;70.60
36386;BME280;24125;47.482;8.770;2023-05-07T12:20:33;96131.44;;;30.38;62.11
36386;BME280;24125;47.482;8.770;2023-05-07T12:23:06;96129.00;;;30.31;66.75
36386;BME280;24125;47.482;8.770;2023-05-07T12:25:41;96133.72;;;30.21;63.10
36386;BME280;24125;47.482;8.770;2023-05-07T12:28:19;96129.41;;;30.11;55.30
36386;BME280;24125;47.482;8.770;2023-05-07T12:30:52;96122.34;;;30.01;60.00
36386;BME280;24125;47.482;8.770;2023-05-07T12:33:26;96122.59;;;29.94;64.04
36386;BME280;24125;47.482;8.770;2023-05-07T12:36:02;96126.84;;;29.86;66.26
36386;BME280;24125;47.482;8.770;2023-05-07T12:38:38;96129.09;;;29.78;61.86
36386;BME280;24125;47.482;8.770;2023-05-07T12:41:12;96131.69;;;29.73;63.62
36386;BME280;24125;47.482;8.770;2023-05-07T12:43:46;96130.28;;;29.68;66.77
36386;BME280;24125;47.482;8.770;2023-05-07T12:46:19;96128.88;;;29.63;64.95
36386;BME280;24125;47.482;8.770;2023-05-07T12:48:51;96123.94;;;29.58;63.15
36386;BME280;24125;47.482;8.770;2023-05-07T12:51:24;96125.00;;;29.52;59.06
36386;BME280;24125;47.482;8.770;2023-05-07T12:53:57;96122.84;;;29.47;61.75
36386;BME280;24125;47.482;8.770;2023-05-07T12:56:30;96123.56;;;29.38;60.85
36386;BME280;24125;47.482;8.770;2023-05-07T12:59:04;96121.50;;;29.30;56.71
36386;BME280;24125;47.482;8.770;2023-05-07T13:01:37;96117.75;;;29.23;64.33
36386;BME280;24125;47.482;8.770;2023-05-07T13:04:10;96123.09;;;29.18;64.91
36386;BME280;24125;47.482;8.770;2023-05-07T13:06:43;96122.00;;;29.15;62.92
36386;BME280;24125;47.482;8.770;2023-05-07T13:09:16;96123.97;;;29.15;63.55
36386;BME280;24125;47.482;8.770;2023-05-07T13:11:48;96123.97;;;29.15;64.07
36386;BME280;24125;47.482;8.770;2023-05-07T13:14:23;96123.97;;;29.15;67.19
36386;BME280;24125;47.482;8.770;2023-05-07T13:16:56;96114.34;;;29.10;57.64
36386;BME280;24125;47.482;8.770;2023-05-07T13:19:28;96121.94;;;29.06;60.54
36386;BME280;24125;47.482;8.770;2023-05-07T13:22:03;96125.69;;;29.00;62.63
36386;BME280;24125;47.482;8.770;2023-05-07T13:24:36;96116.19;;;28.92;62.37
36386;BME280;24125;47.482;8.770;2023-05-07T13:27:13;96109.84;;;28.82;61.41
36386;BME280;24125;47.482;8.770;2023-05-07T13:29:47;96104.72;;;28.71;60.24
36386;BME280;24125;47.482;8.770;2023-05-07T13:32:19;96096.41;;;28.62;60.38
36386;BME280;24125;47.482;8.770;2023-05-07T13:34:52;96097.84;;;28.54;63.16
36386;BME280;24125;47.482;8.770;2023-05-07T13:37:25;96093.03;;;28.45;61.29
36386;BME280;24125;47.482;8.770;2023-05-07T13:39:58;96095.13;;;28.41;64.73
36386;BME280;24125;47.482;8.770;2023-05-07T13:42:31;96086.22;;;28.37;65.78
36386;BME280;24125;47.482;8.770;2023-05-07T13:45:05;96081.66;;;28.34;62.89